Terminal Aerodrome Forecast
Issued by NWS

Home | Current Version | Previous Version | Graphics & Text | Print | Product List | Glossary On
Versions: 1 2 3 4 5 6 7 8 9 10 11 12 13 14 15 16 17 18 19
000
FTUS43 KTOP 280500
TAFMHK
TAF
KMHK 280520Z 2806/2906 10003KT P6SM OVC250
      TEMPO 2807/2811 3SM -TSRA BKN035CB
     FM281500 15008KT P6SM SCT040 BKN150
     FM281900 17012KT P6SM VCTS SCT040CB
     FM290200 18007KT P6SM BKN035=

USA.gov is the U.S. government's official web portal to all federal, state and local government web resources and services.